Time;durP1;ratioP1;P1;durP2;ratioP2;P2;SDS_P1;SDS_P2;PMS_P1;PMS_P2;Temp;Humidity;BMP_temperature;BMP_pressure;BME280_temperature;BME280_humidity;BME280_pressure;Samples;Min_cycle;Max_cycle;Signal;HPM_P1;HPM_P2
2021/05/23 00:01:24;;;;;;;1.13;0.70;;;;;;;12.19;60.19;98465.47;5092334;28;40280;-77
2021/05/23 00:03:51;;;;;;;2.77;0.70;;;;;;;12.04;60.50;98448.88;5109211;27;40659;-76
2021/05/23 00:06:18;;;;;;;2.00;0.80;;;;;;;12.12;60.59;98458.91;5092598;28;42232;-77
2021/05/23 00:08:45;;;;;;;0.87;0.67;;;;;;;12.14;60.97;98457.84;5091507;28;41029;-76
2021/05/23 00:11:12;;;;;;;1.77;0.97;;;;;;;12.17;60.55;98472.69;5088914;28;38908;-78
2021/05/23 00:13:44;;;;;;;1.57;1.00;;;;;;;12.07;60.24;98450.44;5088240;28;41795;-76
2021/05/23 00:16:13;;;;;;;3.00;0.70;;;;;;;12.25;60.27;98480.91;5105294;28;43378;-77
2021/05/23 00:18:43;;;;;;;2.27;0.70;;;;;;;12.27;60.27;98476.34;5089619;28;42171;-76
2021/05/23 00:21:13;;;;;;;1.83;0.80;;;;;;;12.30;59.96;98477.91;5070554;28;38934;-77
2021/05/23 00:23:41;;;;;;;1.60;0.73;;;;;;;12.31;60.34;98477.81;5081180;28;41677;-77
2021/05/23 00:26:08;;;;;;;3.53;1.10;;;;;;;12.20;60.57;98448.56;5101527;28;42724;-80
2021/05/23 00:28:36;;;;;;;1.47;0.70;;;;;;;12.27;61.17;98462.22;5091582;28;41384;-76
2021/05/23 00:31:04;;;;;;;4.07;1.10;;;;;;;12.29;60.51;98465.59;5109419;27;40746;-77
2021/05/23 00:33:32;;;;;;;1.40;0.90;;;;;;;12.23;60.65;98456.31;5092068;28;41636;-76
2021/05/23 00:35:59;;;;;;;0.80;0.60;;;;;;;12.31;60.65;98474.31;5106092;28;42636;-77
2021/05/23 00:38:27;;;;;;;2.03;0.80;;;;;;;12.31;60.32;98480.47;5108198;28;41165;-77
2021/05/23 00:40:54;;;;;;;1.90;0.83;;;;;;;12.29;60.30;98481.53;5091108;28;38869;-77
2021/05/23 00:43:21;;;;;;;1.10;0.80;;;;;;;12.26;60.35;98476.44;5108955;28;40252;-76
2021/05/23 00:45:51;;;;;;;1.83;0.80;;;;;;;12.17;61.12;98459.41;5088912;28;42658;-76
2021/05/23 00:48:21;;;;;;;2.00;1.00;;;;;;;12.17;61.16;98472.69;5107022;27;42205;-76
2021/05/23 00:50:49;;;;;;;1.13;0.80;;;;;;;12.06;61.04;98462.03;5106885;27;39703;-76
2021/05/23 00:53:17;;;;;;;1.97;0.80;;;;;;;12.04;61.11;98448.03;5107451;27;42311;-76
2021/05/23 00:55:44;;;;;;;6.00;1.10;;;;;;;11.97;62.02;98445.00;5105328;28;42671;-77
2021/05/23 00:58:12;;;;;;;1.43;0.90;;;;;;;11.97;61.50;98438.84;5107187;27;41061;-76
2021/05/23 01:01:15;;;;;;;1.70;1.17;;;;;;;11.94;61.67;98433.75;5089623;28;41560;-76
2021/05/23 01:03:55;;;;;;;1.33;1.00;;;;;;;11.94;61.60;98441.72;5075820;28;41376;-76
2021/05/23 01:06:23;;;;;;;1.67;1.10;;;;;;;11.85;61.76;98433.50;5089382;28;42518;-76
2021/05/23 01:08:51;;;;;;;2.40;0.90;;;;;;;11.73;61.61;98421.09;5071081;28;41490;-77
2021/05/23 01:11:54;;;;;;;2.77;0.90;;;;;;;11.87;61.56;98449.28;5104758;28;39859;-76
2021/05/23 01:14:42;;;;;;;1.93;0.70;;;;;;;11.84;61.55;98452.19;5109888;27;41604;-77
2021/05/23 01:17:11;;;;;;;1.77;0.70;;;;;;;11.80;61.41;98451.53;5108487;27;42533;-77
2021/05/23 01:19:54;;;;;;;0.90;0.70;;;;;;;11.72;61.94;98440.63;5108046;28;41367;-76
2021/05/23 01:22:28;;;;;;;1.07;0.73;;;;;;;11.58;62.33;98427.53;5089942;28;41019;-76
2021/05/23 01:25:05;;;;;;;2.37;0.83;;;;;;;11.67;62.42;98456.03;5105682;28;40686;-76
2021/05/23 01:27:37;;;;;;;1.73;0.83;;;;;;;11.61;62.44;98451.19;5105690;27;42682;-76
2021/05/23 01:30:06;;;;;;;1.27;0.70;;;;;;;11.55;62.48;98454.25;5107357;28;41936;-76
2021/05/23 01:32:34;;;;;;;2.37;0.70;;;;;;;11.43;62.75;98461.31;5107302;28;39945;-76
2021/05/23 01:35:09;;;;;;;2.90;1.00;;;;;;;11.38;62.87;98470.53;5104014;28;42372;-76
2021/05/23 01:37:37;;;;;;;3.07;1.00;;;;;;;11.34;63.26;98477.88;5105622;28;42669;-76
2021/05/23 01:40:06;;;;;;;1.77;0.80;;;;;;;11.38;63.54;98478.50;5107274;28;43008;-76
2021/05/23 01:42:34;;;;;;;2.10;0.83;;;;;;;11.41;63.37;98480.94;5090519;28;39184;-76
2021/05/23 01:45:04;;;;;;;1.40;0.80;;;;;;;11.41;63.79;98478.28;5090687;28;40645;-76
2021/05/23 01:47:32;;;;;;;3.57;0.80;;;;;;;11.40;63.90;98472.13;5108608;27;43464;-77
2021/05/23 01:50:15;;;;;;;1.03;0.73;;;;;;;11.43;63.89;98456.00;5107305;28;42224;-76
2021/05/23 01:52:50;;;;;;;2.10;0.70;;;;;;;11.42;63.63;98448.16;5107080;28;40104;-77
2021/05/23 01:55:19;;;;;;;2.53;0.90;;;;;;;11.31;64.08;98421.56;5107865;28;41813;-76
2021/05/23 01:57:46;;;;;;;1.50;0.80;;;;;;;11.39;63.44;98445.72;5088874;28;42343;-76
2021/05/23 02:00:17;;;;;;;1.30;0.90;;;;;;;11.40;63.33;98435.00;5105490;28;41355;-76
2021/05/23 02:02:44;;;;;;;1.57;0.80;;;;;;;11.41;63.85;98435.84;5106707;28;40712;-77
2021/05/23 02:05:13;;;;;;;2.00;0.90;;;;;;;11.38;63.84;98428.97;5107693;28;40778;-76
2021/05/23 02:07:40;;;;;;;1.00;0.60;;;;;;;11.37;63.41;98445.88;5107145;28;44169;-76
2021/05/23 02:10:11;;;;;;;2.17;0.90;;;;;;;11.40;63.52;98460.66;5086175;28;41219;-76
2021/05/23 02:12:41;;;;;;;2.30;0.63;;;;;;;11.40;63.23;98460.66;5089876;28;40840;-76
2021/05/23 02:15:10;;;;;;;2.33;0.83;;;;;;;11.39;63.96;98458.97;5090299;28;40836;-77
2021/05/23 02:17:38;;;;;;;1.70;0.80;;;;;;;11.32;63.80;98447.13;5092147;28;42478;-76
2021/05/23 02:20:07;;;;;;;1.23;0.60;;;;;;;11.42;63.79;98464.91;5089900;28;42181;-76
2021/05/23 02:22:38;;;;;;;2.10;0.83;;;;;;;11.45;64.08;98464.69;5095167;28;39681;-77
2021/05/23 02:25:07;;;;;;;1.43;0.80;;;;;;;11.48;63.65;98468.94;5109905;28;41862;-77
2021/05/23 02:27:38;;;;;;;1.80;0.87;;;;;;;11.50;63.69;98464.34;5093420;28;41778;-76
2021/05/23 02:30:10;;;;;;;1.47;0.80;;;;;;;11.45;63.12;98469.16;5109430;28;40926;-76
2021/05/23 02:32:37;;;;;;;2.13;0.80;;;;;;;11.57;62.93;98494.78;5094010;28;39670;-76
2021/05/23 02:35:06;;;;;;;1.10;0.73;;;;;;;11.61;63.02;98501.56;5110882;27;41603;-76
2021/05/23 02:37:33;;;;;;;1.23;0.80;;;;;;;11.63;62.99;98507.59;5093558;28;42850;-76
2021/05/23 02:40:04;;;;;;;3.50;0.97;;;;;;;11.67;62.81;98511.72;5110714;27;42003;-77
2021/05/23 02:42:32;;;;;;;2.07;0.90;;;;;;;11.70;62.80;98516.81;5110855;28;38808;-76
2021/05/23 02:44:59;;;;;;;1.33;0.70;;;;;;;11.72;62.55;98504.28;5110489;28;41373;-76
2021/05/23 02:47:27;;;;;;;2.70;0.70;;;;;;;11.75;62.62;98509.38;5110354;28;43444;-77
2021/05/23 02:49:54;;;;;;;2.00;0.80;;;;;;;11.76;62.98;98503.13;5092750;28;41536;-76
2021/05/23 02:52:21;;;;;;;2.67;1.03;;;;;;;11.77;62.39;98507.47;5110794;28;39581;-76
2021/05/23 02:54:49;;;;;;;1.13;0.73;;;;;;;11.78;62.37;98509.16;5110296;28;41954;-76
2021/05/23 02:57:17;;;;;;;1.43;0.60;;;;;;;11.77;62.06;98514.59;5109951;28;42202;-76
2021/05/23 02:59:44;;;;;;;1.13;0.60;;;;;;;11.77;62.37;98512.78;5109582;28;42782;-77
2021/05/23 03:02:11;;;;;;;1.80;0.80;;;;;;;11.74;62.44;98507.69;5111668;27;40829;-77
2021/05/23 03:04:39;;;;;;;1.43;0.90;;;;;;;11.74;62.70;98513.00;5093519;28;41642;-76
2021/05/23 03:07:06;;;;;;;0.93;0.90;;;;;;;11.73;62.84;98521.91;5110054;28;42994;-76
2021/05/23 03:09:33;;;;;;;2.83;0.90;;;;;;;11.70;63.09;98508.00;5110696;28;41211;-77
2021/05/23 03:12:01;;;;;;;1.80;0.80;;;;;;;11.73;62.88;98515.75;5109482;28;39152;-76
2021/05/23 03:14:28;;;;;;;1.23;0.70;;;;;;;11.74;62.99;98522.75;5093858;28;40580;-76
2021/05/23 03:16:55;;;;;;;0.50;0.50;;;;;;;11.70;62.84;98516.81;5110627;27;43457;-78
2021/05/23 03:19:22;;;;;;;1.17;1.00;;;;;;;11.77;62.83;98526.03;5093944;28;41321;-76
2021/05/23 03:21:50;;;;;;;1.10;0.60;;;;;;;11.77;62.59;98523.38;5111241;27;39841;-76
2021/05/23 03:24:18;;;;;;;1.57;0.57;;;;;;;11.66;63.12;98499.41;5092430;28;41119;-76
2021/05/23 03:26:45;;;;;;;2.80;0.90;;;;;;;11.77;63.38;98523.38;5109683;28;42829;-77
2021/05/23 03:29:12;;;;;;;1.80;0.60;;;;;;;11.80;63.19;98520.53;5109640;28;42058;-76
2021/05/23 03:31:39;;;;;;;1.70;0.70;;;;;;;11.82;63.44;98526.56;5092652;28;39637;-77
2021/05/23 03:34:06;;;;;;;2.80;0.50;;;;;;;11.85;63.16;98533.47;5108759;28;41725;-76
2021/05/23 03:36:33;;;;;;;1.17;0.60;;;;;;;11.86;63.04;98537.81;5108865;28;41872;-76
2021/05/23 03:39:01;;;;;;;1.53;0.60;;;;;;;11.86;62.81;98538.66;5108975;28;43085;-78
2021/05/23 03:41:28;;;;;;;0.60;0.50;;;;;;;11.91;63.28;98545.41;5109188;28;39062;-77
2021/05/23 03:43:55;;;;;;;1.77;0.67;;;;;;;11.94;62.99;98545.22;5109910;27;42171;-76
2021/05/23 03:46:22;;;;;;;1.00;0.60;;;;;;;11.92;63.06;98531.19;5110206;27;43324;-76
2021/05/23 03:48:49;;;;;;;0.83;0.60;;;;;;;11.93;62.95;98538.19;5108845;28;42175;-77
2021/05/23 03:51:16;;;;;;;1.57;0.70;;;;;;;11.94;62.93;98550.50;5092489;28;41059;-76
2021/05/23 03:53:44;;;;;;;0.67;0.60;;;;;;;11.92;63.43;98553.28;5092307;28;41786;-76
2021/05/23 03:56:13;;;;;;;1.23;0.90;;;;;;;11.94;63.32;98566.44;5108968;28;42683;-77
2021/05/23 03:58:40;;;;;;;1.30;0.77;;;;;;;11.96;63.25;98559.22;5108521;28;42195;-76
2021/05/23 04:01:07;;;;;;;1.23;0.80;;;;;;;11.99;63.21;98565.13;5110460;27;39771;-76
2021/05/23 04:03:34;;;;;;;1.80;0.77;;;;;;;12.03;62.98;98571.91;5109067;28;41769;-76
2021/05/23 04:06:01;;;;;;;0.80;0.60;;;;;;;12.08;62.86;98569.78;5091534;28;41830;-76
2021/05/23 04:08:28;;;;;;;1.87;0.80;;;;;;;12.05;62.67;98561.19;5110046;28;41288;-76
2021/05/23 04:10:59;;;;;;;1.87;0.90;;;;;;;12.15;62.52;98578.13;5088475;28;39097;-77
2021/05/23 04:13:28;;;;;;;0.77;0.70;;;;;;;12.15;62.50;98581.63;5090088;28;42482;-76
2021/05/23 04:15:55;;;;;;;1.33;0.70;;;;;;;12.17;62.41;98586.84;5089403;28;42541;-77
2021/05/23 04:18:22;;;;;;;3.60;0.90;;;;;;;12.19;62.16;98588.44;5091548;28;41431;-76
2021/05/23 04:20:49;;;;;;;1.20;0.50;;;;;;;12.20;62.32;98586.63;5108678;28;39635;-77
2021/05/23 04:23:17;;;;;;;0.80;0.50;;;;;;;12.21;62.01;98597.13;5108711;28;42464;-76
2021/05/23 04:25:44;;;;;;;1.17;0.60;;;;;;;12.14;62.18;98589.72;5108301;28;41791;-76
2021/05/23 04:28:11;;;;;;;0.60;0.50;;;;;;;12.26;62.34;98609.19;5108525;28;42741;-76
2021/05/23 04:30:39;;;;;;;2.33;0.70;;;;;;;12.28;61.95;98618.75;5109105;28;40196;-76
2021/05/23 04:33:06;;;;;;;1.77;0.50;;;;;;;12.37;62.09;98626.03;5109057;28;41438;-77
2021/05/23 04:35:34;;;;;;;1.33;0.70;;;;;;;12.46;61.97;98625.38;5107269;28;41809;-76
2021/05/23 04:38:01;;;;;;;1.83;0.80;;;;;;;12.55;61.71;98635.31;5106487;28;42122;-76
2021/05/23 04:40:29;;;;;;;2.40;0.80;;;;;;;12.61;61.59;98635.84;5108675;28;40994;-77
2021/05/23 04:42:56;;;;;;;1.17;0.73;;;;;;;12.67;61.80;98646.00;5108678;27;41727;-77
2021/05/23 04:45:24;;;;;;;1.70;0.63;;;;;;;12.69;61.76;98655.56;5109954;27;42501;-76
2021/05/23 04:47:52;;;;;;;1.13;0.60;;;;;;;12.68;61.79;98650.34;5108626;28;42380;-77
2021/05/23 04:50:19;;;;;;;1.90;0.80;;;;;;;12.68;61.67;98658.31;5108405;28;39710;-77
2021/05/23 04:52:46;;;;;;;1.80;0.80;;;;;;;12.70;61.69;98651.09;5108435;28;41859;-76
2021/05/23 04:55:14;;;;;;;2.87;0.80;;;;;;;12.69;61.53;98642.28;5108510;28;43537;-77
2021/05/23 04:57:42;;;;;;;2.00;1.07;;;;;;;12.70;61.22;98646.63;5091411;28;41023;-77
2021/05/23 05:00:11;;;;;;;2.80;0.90;;;;;;;12.67;60.99;98646.00;5108850;28;39670;-77
2021/05/23 05:02:41;;;;;;;0.87;0.50;;;;;;;12.56;60.90;98644.13;5108293;28;42431;-77
2021/05/23 05:05:11;;;;;;;2.13;0.73;;;;;;;12.65;60.79;98658.53;5108129;28;42766;-76
2021/05/23 05:07:38;;;;;;;1.70;0.87;;;;;;;12.70;60.89;98661.72;5109906;27;42937;-77
2021/05/23 05:10:06;;;;;;;1.80;0.67;;;;;;;12.74;60.84;98665.81;5108104;28;38970;-76
2021/05/23 05:12:34;;;;;;;2.73;0.97;;;;;;;12.77;60.58;98679.72;5109166;27;41317;-76
2021/05/23 05:15:01;;;;;;;2.53;0.70;;;;;;;12.84;60.46;98682.81;5107770;28;42556;-76
2021/05/23 05:17:28;;;;;;;1.43;0.90;;;;;;;12.90;60.55;98690.31;5108082;28;42306;-76
2021/05/23 05:19:55;;;;;;;0.67;0.63;;;;;;;13.01;60.50;98693.00;5091070;28;38880;-77
2021/05/23 05:22:23;;;;;;;1.53;0.60;;;;;;;13.20;60.03;98700.50;5091217;28;41690;-77
2021/05/23 05:24:50;;;;;;;2.67;0.80;;;;;;;13.49;59.54;98706.22;5107928;28;42350;-76
2021/05/23 05:27:19;;;;;;;1.20;0.50;;;;;;;13.81;58.23;98715.25;5107449;28;42245;-77
2021/05/23 05:29:46;;;;;;;0.97;0.80;;;;;;;14.08;57.62;98712.25;5107606;28;41725;-76
2021/05/23 05:32:13;;;;;;;1.50;1.00;;;;;;;14.39;56.87;98721.28;5108650;27;43042;-77
2021/05/23 05:34:41;;;;;;;0.93;0.70;;;;;;;14.64;56.11;98718.38;5108790;27;42758;-76
2021/05/23 05:37:08;;;;;;;2.00;0.80;;;;;;;14.85;55.51;98726.41;5107586;28;42137;-77
2021/05/23 05:39:37;;;;;;;2.50;0.70;;;;;;;15.15;54.40;98735.53;5107673;28;39110;-77
2021/05/23 05:42:05;;;;;;;0.67;0.60;;;;;;;15.38;53.45;98727.31;5107190;28;40695;-78
2021/05/23 05:44:32;;;;;;;1.80;0.63;;;;;;;15.50;52.28;98735.25;5107887;28;42121;-77
2021/05/23 05:46:59;;;;;;;1.37;0.70;;;;;;;15.70;52.73;98737.94;5110775;27;42300;-77
2021/05/23 05:49:26;;;;;;;2.03;0.80;;;;;;;15.66;52.59;98733.03;5111090;28;39802;-77
2021/05/23 05:51:53;;;;;;;2.43;0.57;;;;;;;15.71;52.56;98744.13;5108192;28;41453;-77
2021/05/23 05:54:20;;;;;;;1.27;0.50;;;;;;;15.79;51.74;98755.03;5111283;28;43477;-77
2021/05/23 05:56:48;;;;;;;1.30;0.90;;;;;;;15.92;52.07;98763.69;5094103;28;41207;-77
2021/05/23 05:59:15;;;;;;;1.60;0.70;;;;;;;16.05;51.14;98771.47;5112350;27;39861;-77
2021/05/23 06:01:43;;;;;;;2.23;0.73;;;;;;;16.17;51.50;98770.44;5111303;28;41700;-77
2021/05/23 06:04:10;;;;;;;1.60;0.67;;;;;;;16.29;50.63;98777.38;5110924;28;43478;-78
2021/05/23 06:06:37;;;;;;;0.90;0.50;;;;;;;16.27;50.59;98779.31;5095107;28;41240;-77
2021/05/23 06:09:17;;;;;;;2.40;0.80;;;;;;;16.20;50.52;98777.31;5111299;28;40005;-78
2021/05/23 06:11:45;;;;;;;1.70;0.90;;;;;;;16.05;50.78;98785.69;5112519;27;41652;-78
2021/05/23 06:14:13;;;;;;;1.53;0.60;;;;;;;15.83;50.78;98769.78;5112349;27;42727;-78
2021/05/23 06:16:40;;;;;;;2.20;1.03;;;;;;;15.64;51.71;98748.31;5110928;28;42262;-77
2021/05/23 06:19:07;;;;;;;1.97;0.90;;;;;;;15.95;51.26;98789.28;5110755;28;39853;-78
2021/05/23 06:21:34;;;;;;;2.53;1.20;;;;;;;16.05;51.35;98783.03;5112086;27;41757;-77
2021/05/23 06:24:01;;;;;;;1.50;0.70;;;;;;;16.14;50.84;98774.19;5093971;28;42846;-78
2021/05/23 06:26:28;;;;;;;2.30;1.20;;;;;;;16.39;50.81;98788.09;5110582;28;42259;-79
2021/05/23 06:28:56;;;;;;;1.43;0.60;;;;;;;16.59;50.24;98787.19;5110323;28;39606;-78
2021/05/23 06:31:24;;;;;;;1.17;0.70;;;;;;;16.86;49.73;98795.47;5110653;28;41406;-78
2021/05/23 06:33:51;;;;;;;2.33;0.60;;;;;;;17.24;49.07;98792.03;5110358;28;42244;-79
2021/05/23 06:36:19;;;;;;;2.87;0.80;;;;;;;17.38;47.67;98806.00;5110210;28;42290;-77
2021/05/23 06:38:46;;;;;;;0.73;0.40;;;;;;;17.70;47.76;98803.91;5111842;27;39612;-79
2021/05/23 06:41:13;;;;;;;1.47;0.70;;;;;;;17.86;47.32;98812.22;5110246;28;40793;-77
2021/05/23 06:43:40;;;;;;;1.90;0.90;;;;;;;18.04;46.66;98809.66;5109672;28;42736;-77
2021/05/23 06:46:07;;;;;;;1.60;0.60;;;;;;;18.18;47.29;98814.53;5110783;28;42127;-77
2021/05/23 06:48:35;;;;;;;1.90;0.53;;;;;;;18.24;46.29;98834.56;5093821;28;39929;-77
2021/05/23 06:51:02;;;;;;;2.30;0.57;;;;;;;18.22;45.69;98836.53;5110735;28;40664;-77
2021/05/23 06:53:29;;;;;;;1.73;0.60;;;;;;;18.16;45.03;98829.94;5110660;28;42484;-77
2021/05/23 06:55:56;;;;;;;1.77;0.60;;;;;;;18.17;44.52;98842.34;5110851;28;41548;-77
2021/05/23 06:58:23;;;;;;;0.80;0.50;;;;;;;18.04;44.61;98849.84;5093127;28;40095;-79
2021/05/23 07:00:51;;;;;;;1.90;0.70;;;;;;;18.03;44.37;98864.25;5111727;27;42187;-78
2021/05/23 07:03:18;;;;;;;1.17;0.90;;;;;;;17.93;44.83;98849.97;5105569;28;42894;-77
2021/05/23 07:05:46;;;;;;;1.87;0.83;;;;;;;17.88;44.60;98861.16;5101849;28;43296;-78
2021/05/23 07:08:14;;;;;;;0.80;0.50;;;;;;;17.99;45.40;98856.63;5101798;28;39610;-78
2021/05/23 07:10:41;;;;;;;1.77;0.67;;;;;;;17.96;45.33;98838.97;5081542;28;40845;-77
2021/05/23 07:13:08;;;;;;;1.23;0.73;;;;;;;18.04;45.70;98857.91;5098533;28;44068;-77
2021/05/23 07:15:36;;;;;;;2.00;0.80;;;;;;;17.95;44.82;98864.09;5113748;28;42927;-78
2021/05/23 07:18:03;;;;;;;2.27;0.70;;;;;;;17.71;44.75;98874.38;5110483;27;39825;-77
2021/05/23 07:20:30;;;;;;;3.03;0.80;;;;;;;17.50;45.37;98861.94;5104700;28;42424;-77
2021/05/23 07:22:58;;;;;;;2.13;0.77;;;;;;;17.38;45.14;98868.41;5110296;28;41717;-78
2021/05/23 07:25:25;;;;;;;2.30;0.70;;;;;;;17.27;45.52;98857.81;5105021;28;42756;-77
2021/05/23 07:27:53;;;;;;;1.37;0.70;;;;;;;17.35;45.76;98868.66;5106415;28;38908;-79
2021/05/23 07:30:20;;;;;;;1.20;0.60;;;;;;;17.42;45.49;98872.50;5104866;28;42217;-79
2021/05/23 07:32:48;;;;;;;0.83;0.50;;;;;;;17.48;45.92;98871.94;5106324;28;43016;-78
2021/05/23 07:35:15;;;;;;;2.00;0.70;;;;;;;17.45;45.72;98869.53;5106708;28;42369;-79
2021/05/23 07:37:42;;;;;;;3.77;0.87;;;;;;;17.30;45.98;98868.25;5107681;28;40013;-77
2021/05/23 07:40:13;;;;;;;1.13;0.60;;;;;;;17.29;46.35;98879.09;5107506;27;42469;-78
2021/05/23 07:42:42;;;;;;;3.17;0.73;;;;;;;17.82;45.12;98887.63;5105978;28;41949;-77
2021/05/23 07:45:10;;;;;;;1.87;0.90;;;;;;;18.56;42.81;98899.41;5105546;28;42167;-78
2021/05/23 07:47:39;;;;;;;2.10;0.90;;;;;;;18.60;43.41;98894.63;5085096;28;41255;-78
2021/05/23 07:50:08;;;;;;;3.03;0.77;;;;;;;18.65;43.03;98898.59;5088701;28;41577;-78
2021/05/23 07:52:36;;;;;;;1.57;0.70;;;;;;;18.48;43.82;98896.59;5105848;27;42681;-77
2021/05/23 07:55:05;;;;;;;2.27;1.00;;;;;;;18.00;47.22;98867.19;5105168;28;41581;-77
2021/05/23 07:57:33;;;;;;;2.80;0.87;;;;;;;17.40;50.07;98850.38;5086001;28;40567;-77
2021/05/23 08:00:00;;;;;;;0.63;0.63;;;;;;;16.92;50.85;98849.41;5085255;28;42419;-77
2021/05/23 08:02:28;;;;;;;1.93;0.80;;;;;;;16.60;53.03;98834.34;5088153;28;41739;-77
2021/05/23 08:04:55;;;;;;;1.50;0.63;;;;;;;16.88;52.66;98839.00;5086872;28;41755;-78
2021/05/23 08:07:23;;;;;;;1.90;0.90;;;;;;;18.99;48.66;98866.66;5088542;28;39431;-80
2021/05/23 08:09:50;;;;;;;1.93;0.80;;;;;;;20.96;45.89;98885.25;5090600;28;41514;-79
2021/05/23 08:12:18;;;;;;;1.57;0.90;;;;;;;21.36;44.36;98886.47;5085031;28;42168;-77
2021/05/23 08:14:46;;;;;;;1.23;0.87;;;;;;;21.77;43.04;98885.53;5099138;28;42645;-78
2021/05/23 08:17:14;;;;;;;1.97;0.90;;;;;;;22.89;39.00;98919.94;5105348;27;40585;-78
2021/05/23 08:19:41;;;;;;;2.37;0.83;;;;;;;23.36;37.05;98935.38;5103412;28;40716;-80
2021/05/23 08:22:08;;;;;;;0.80;0.67;;;;;;;25.40;33.21;98958.00;5106056;27;42530;-77
2021/05/23 08:24:36;;;;;;;2.20;0.70;;;;;;;26.28;30.53;98976.00;5106968;27;42133;-78
2021/05/23 08:27:04;;;;;;;1.70;0.67;;;;;;;26.88;29.84;98964.66;5106292;27;39854;-77
2021/05/23 08:29:31;;;;;;;2.97;0.77;;;;;;;27.53;29.08;98977.88;5105753;28;41769;-77
2021/05/23 08:31:59;;;;;;;1.23;0.60;;;;;;;27.79;27.87;98979.06;5088489;28;42201;-76
2021/05/23 08:34:27;;;;;;;1.10;0.60;;;;;;;28.23;27.40;98976.72;5106545;27;43368;-78
2021/05/23 08:36:55;;;;;;;1.90;0.77;;;;;;;27.75;27.12;98994.09;5106834;27;39582;-79
2021/05/23 08:39:26;;;;;;;2.17;0.80;;;;;;;29.38;24.70;99010.16;5107432;27;20267;-77
2021/05/23 08:41:53;;;;;;;1.27;0.53;;;;;;;29.62;24.37;98999.38;5106822;27;43414;-77
2021/05/23 08:44:22;;;;;;;1.10;0.50;;;;;;;28.87;24.75;99006.19;5106461;27;42678;-79
2021/05/23 08:46:51;;;;;;;1.80;0.93;;;;;;;27.70;26.39;98974.81;5106667;27;41504;-78
2021/05/23 08:49:21;;;;;;;2.30;1.03;;;;;;;28.72;24.96;99002.78;5099652;28;41196;-78
2021/05/23 08:51:49;;;;;;;2.80;0.70;;;;;;;28.41;25.65;99002.53;5104378;28;42519;-78
2021/05/23 08:54:16;;;;;;;1.53;0.73;;;;;;;27.87;26.80;98987.03;5106798;27;43891;-78
2021/05/23 08:56:45;;;;;;;1.37;0.77;;;;;;;26.98;28.16;98996.94;5104239;28;39371;-80
2021/05/23 08:59:13;;;;;;;1.30;0.80;;;;;;;26.31;28.12;98983.78;5106103;28;40321;-78
2021/05/23 09:01:40;;;;;;;1.00;0.50;;;;;;;26.77;29.39;98970.63;5100803;28;43619;-79
2021/05/23 09:04:09;;;;;;;3.03;0.83;;;;;;;26.68;27.58;98980.78;5105129;28;41913;-79
2021/05/23 09:06:38;;;;;;;1.73;0.87;;;;;;;26.22;28.38;98983.00;5090436;28;38919;-79
2021/05/23 09:09:07;;;;;;;1.93;0.80;;;;;;;26.05;28.48;98976.16;5104585;28;41321;-79
2021/05/23 09:11:35;;;;;;;0.83;0.73;;;;;;;25.42;28.79;98986.59;5104363;28;42698;-80
2021/05/23 09:14:04;;;;;;;1.23;0.70;;;;;;;24.72;29.80;98985.28;5088408;28;42324;-80
2021/05/23 09:16:37;;;;;;;1.90;0.70;;;;;;;24.22;29.81;98978.53;5104507;28;40529;-80
2021/05/23 09:19:04;;;;;;;2.00;1.00;;;;;;;24.17;30.53;98970.09;5082464;28;41997;-80
2021/05/23 09:21:34;;;;;;;2.70;0.77;;;;;;;24.93;30.05;98988.16;5106913;27;43164;-78
2021/05/23 09:24:05;;;;;;;1.40;0.80;;;;;;;24.81;29.95;98984.19;5109906;27;41852;-77
2021/05/23 09:26:34;;;;;;;1.20;0.80;;;;;;;24.35;30.40;98978.81;5097967;28;39459;-77
2021/05/23 09:29:04;;;;;;;1.50;0.80;;;;;;;24.08;31.59;98976.59;5072082;28;40629;-78
2021/05/23 09:31:32;;;;;;;1.40;0.70;;;;;;;23.95;31.92;98986.13;5101368;28;43344;-77
2021/05/23 09:33:59;;;;;;;1.63;0.67;;;;;;;24.62;31.02;98986.34;5108100;27;42850;-76
2021/05/23 09:36:26;;;;;;;1.70;0.90;;;;;;;25.99;29.55;98980.47;5110051;27;41635;-78
2021/05/23 09:38:55;;;;;;;1.20;0.80;;;;;;;27.47;27.26;99005.84;5107700;28;40871;-77
2021/05/23 09:41:25;;;;;;;3.70;0.77;;;;;;;27.26;26.82;98997.78;5108393;27;42660;-79
2021/05/23 09:44:12;;;;;;;1.33;0.60;;;;;;;26.05;28.72;98996.00;5106022;27;43391;-79
2021/05/23 09:46:54;;;;;;;1.23;0.70;;;;;;;25.17;29.78;99000.63;5106732;27;40532;-80
2021/05/23 09:49:22;;;;;;;2.37;0.70;;;;;;;24.39;30.80;98993.66;5105428;28;41206;-80
2021/05/23 09:51:51;;;;;;;1.50;0.73;;;;;;;23.84;31.71;98996.50;5108138;27;43466;-80
2021/05/23 09:54:18;;;;;;;1.20;1.10;;;;;;;23.33;32.12;98973.53;5107818;27;41985;-80
2021/05/23 09:56:46;;;;;;;5.03;0.93;;;;;;;23.13;31.15;99006.34;5106977;28;39113;-79
2021/05/23 09:59:21;;;;;;;1.57;0.67;;;;;;;23.08;31.46;99010.59;5091147;28;40708;-80
2021/05/23 10:01:50;;;;;;;1.83;1.13;;;;;;;23.19;31.23;99002.13;5106294;28;42601;-79
2021/05/23 10:04:20;;;;;;;1.27;0.83;;;;;;;23.63;31.82;98994.38;5103886;28;42312;-79
2021/05/23 10:06:59;;;;;;;1.80;0.87;;;;;;;23.91;31.81;98986.66;5108426;28;40764;-79
2021/05/23 10:09:27;;;;;;;2.47;1.00;;;;;;;24.19;30.49;98981.59;5108139;28;40869;-77
2021/05/23 10:11:57;;;;;;;6.90;4.87;;;;;;;24.55;30.57;99003.53;5108860;27;42178;-79
2021/05/23 10:14:25;;;;;;;2.43;1.27;;;;;;;24.38;29.26;99013.63;5109577;28;41088;-79
2021/05/23 10:16:53;;;;;;;1.20;0.70;;;;;;;24.92;29.82;99014.38;5111705;27;40016;-80
2021/05/23 10:19:25;;;;;;;1.73;0.93;;;;;;;24.52;29.61;98993.03;5093801;27;42078;-78
2021/05/23 10:21:53;;;;;;;2.93;0.90;;;;;;;24.22;30.52;99014.59;5093587;28;43756;-80
2021/05/23 10:24:26;;;;;;;2.50;1.03;;;;;;;23.88;30.63;99009.47;5090244;28;43041;-81
2021/05/23 10:26:57;;;;;;;2.13;1.00;;;;;;;23.54;31.46;99015.22;5110153;28;40422;-79
2021/05/23 10:29:25;;;;;;;3.47;1.23;;;;;;;23.07;31.34;98993.53;5111643;28;41515;-78
2021/05/23 10:32:06;;;;;;;2.23;0.80;;;;;;;22.58;31.75;99015.16;5110726;27;43242;-79
2021/05/23 10:34:42;;;;;;;1.63;0.93;;;;;;;22.04;33.09;99004.94;5110999;27;42012;-79
2021/05/23 10:37:09;;;;;;;0.93;0.70;;;;;;;21.74;33.75;99012.59;5108707;28;40340;-77
2021/05/23 10:39:42;;;;;;;1.50;0.90;;;;;;;21.59;34.37;99006.13;5110380;28;42436;-79
2021/05/23 10:42:13;;;;;;;0.67;0.67;;;;;;;22.23;34.39;98999.25;5111027;27;42687;-79
2021/05/23 10:44:42;;;;;;;1.30;1.00;;;;;;;22.54;34.78;98980.53;5111440;27;42616;-77
2021/05/23 10:47:11;;;;;;;2.13;0.90;;;;;;;23.24;34.74;98997.88;5110738;27;40448;-79
2021/05/23 10:49:50;;;;;;;1.50;0.90;;;;;;;23.48;33.52;98998.84;5111139;27;41685;-78
2021/05/23 10:52:17;;;;;;;1.50;0.80;;;;;;;23.45;32.58;99004.59;5110268;28;43506;-78
2021/05/23 10:54:55;;;;;;;1.20;0.77;;;;;;;23.11;31.93;99021.91;5092848;28;41364;-78
2021/05/23 10:57:23;;;;;;;0.93;0.60;;;;;;;22.70;32.63;99014.81;5087453;28;40472;-78
2021/05/23 10:59:59;;;;;;;1.27;0.73;;;;;;;22.27;33.54;99008.69;5108556;28;41967;-78
2021/05/23 11:02:37;;;;;;;0.80;0.80;;;;;;;22.06;32.91;99017.25;5092823;28;42244;-79
2021/05/23 11:05:10;;;;;;;2.73;1.03;;;;;;;22.63;32.80;99011.06;5109520;28;42166;-79
2021/05/23 11:07:37;;;;;;;1.10;0.80;;;;;;;23.11;32.58;99010.25;5127659;27;39913;-79
2021/05/23 11:10:19;;;;;;;1.83;0.87;;;;;;;23.51;32.39;99006.59;5110802;27;42352;-78
2021/05/23 11:12:52;;;;;;;0.80;0.70;;;;;;;23.87;31.20;99024.03;5109421;28;43429;-79
2021/05/23 11:15:20;;;;;;;1.20;0.80;;;;;;;24.15;31.27;99029.81;5109684;28;42905;-80
2021/05/23 11:17:52;;;;;;;1.83;0.90;;;;;;;24.50;28.94;99039.25;5109422;28;41033;-80
2021/05/23 11:20:21;;;;;;;1.90;0.70;;;;;;;24.81;30.63;99024.81;5110768;27;41611;-80
2021/05/23 11:22:57;;;;;;;0.90;0.77;;;;;;;25.06;29.73;99031.72;5092412;28;41812;-79
2021/05/23 11:25:25;;;;;;;2.80;0.87;;;;;;;24.75;30.82;99028.22;5143563;27;42658;-78
2021/05/23 11:27:58;;;;;;;0.97;0.60;;;;;;;24.40;29.62;99029.69;5110836;27;40692;-79
2021/05/23 11:30:28;;;;;;;1.20;0.63;;;;;;;23.93;30.17;99038.72;5091425;28;43085;-78
2021/05/23 11:33:03;;;;;;;0.70;0.60;;;;;;;23.51;31.31;99039.03;5092145;28;42732;-78
2021/05/23 11:35:32;;;;;;;2.03;1.53;;;;;;;22.94;32.92;99031.03;5109230;27;42026;-78
2021/05/23 11:38:01;;;;;;;1.27;0.80;;;;;;;22.25;34.89;99024.22;5108651;28;39874;-78
2021/05/23 11:40:33;;;;;;;2.47;1.00;;;;;;;21.68;35.89;99020.47;5109669;27;41679;-77
2021/05/23 11:43:23;;;;;;;1.40;0.93;;;;;;;21.19;36.47;99022.06;5125332;27;41442;-78